This is the latest recevied weather packets stored in our database for station/object OM5ZU-10. If no packets are shown the sender has not sent any weather packets the latest 10 day(s).
| Time | Temp. | Humidity | Pressure | Rain* | Wind** | Luminosity | Snow |
|---|---|---|---|---|---|---|---|
| 1788314832 | 11.67° C | 82% | 1020.9 hPa | - | - | - | - |
| 1788313931 | 12.22° C | 81% | 1020.7 hPa | - | - | - | - |
| 1788313031 | 12.22° C | 81% | 1021 hPa | - | - | - | - |
| 1788312131 | 12.22° C | 80% | 1021 hPa | - | - | - | - |
| 1788311231 | 12.22° C | 80% | 1021 hPa | - | - | - | - |
| 1788310331 | 13.33° C | 76% | 1020.8 hPa | - | - | - | - |
| 1788309431 | 13.33° C | 74% | 1020.7 hPa | - | - | - | - |
| 1788308530 | 13.33° C | 75% | 1020.8 hPa | - | - | - | - |
| 1788307630 | 13.89° C | 72% | 1020.7 hPa | - | - | - | - |
| 1788306730 | 13.89° C | 71% | 1020.7 hPa | - | - | - | - |
| 1788305830 | 13.89° C | 73% | 1020.5 hPa | - | - | - | - |
| 1788304930 | 13.33° C | 75% | 1020.5 hPa | - | - | - | - |
| 1788304030 | 13.89° C | 74% | 1020.6 hPa | - | - | - | - |
| 1788303138 | 14.44° C | 72% | 1020.6 hPa | - | - | - | - |
| 1788302229 | 15.56° C | 68% | 1020.5 hPa | - | - | - | - |
| 1788301329 | 15.56° C | 66% | 1020.3 hPa | - | - | - | - |
| 1788300429 | 15° C | 68% | 1020.3 hPa | - | - | - | - |
| 1788299529 | 15° C | 69% | 1020.1 hPa | - | - | - | - |
| 1788298629 | 15.56° C | 66% | 1020.2 hPa | - | - | - | - |
| 1788297729 | 15° C | 67% | 1020 hPa | - | - | - | - |
| 1788296829 | 15.56° C | 68% | 1020.1 hPa | - | - | - | - |
| 1788295928 | 15.56° C | 66% | 1019.9 hPa | - | - | - | - |
| 1788295028 | 15.56° C | 65% | 1020 hPa | - | - | - | - |
| 1788294128 | 16.11° C | 67% | 1019.8 hPa | - | - | - | - |
| 1788293228 | 17.22° C | 59% | 1019.7 hPa | - | - | - | - |
* Rain since midnight (hover to see other rain measurements)
** Current wind speed in m/s (hover to see current wind gust speed)